Terminal Aerodrome Forecast
Issued by NWS

Home | Current Version | Previous Version | Text Only | Print | Product List | Glossary On
Versions: 1 2 3 4 5 6 7 8 9 10 11 12 13 14 15 16 17 18
000
FTUS44 KLZK 212336
TAFADF
TAF
KADF 212336Z 2200/2224 04007KT P6SM -RA BKN008 OVC020 WS020/04045KT
      TEMPO 2200/2204 2SM RA BR OVC006
     FM220400 03006KT 4SM -RA BR BKN005 OVC015 WS020/04040KT
      TEMPO 2204/2208 2SM RA BR OVC005
     FM220800 03006KT 3SM -RA BR BKN005 OVC015
      TEMPO 2208/2212 2SM RA BR OVC003
     FM221400 03007KT 4SM -RA BKN004 OVC015=

USA.gov is the U.S. government's official web portal to all federal, state and local government web resources and services.